Time;durP1;ratioP1;P1;durP2;ratioP2;P2;SDS_P1;SDS_P2;PMS_P1;PMS_P2;Temp;Humidity;BMP_temperature;BMP_pressure;BME280_temperature;BME280_humidity;BME280_pressure;Samples;Min_cycle;Max_cycle;Signal;HPM_P1;HPM_P2
2021/01/11 00:00:16;;;;;;;23.98;14.65;;;10.00;99.90;;;;;;5054518;28;20378;-69
2021/01/11 00:02:53;;;;;;;24.70;15.73;;;10.00;99.90;;;;;;5054666;28;20024;-69
2021/01/11 00:05:20;;;;;;;24.02;15.98;;;10.10;99.90;;;;;;5054709;28;20040;-69
2021/01/11 00:07:47;;;;;;;23.48;15.15;;;9.90;99.90;;;;;;5054664;28;20461;-68
2021/01/11 00:10:15;;;;;;;25.95;14.55;;;9.70;99.90;;;;;;5054864;28;20041;-68
2021/01/11 00:12:45;;;;;;;23.85;14.45;;;9.60;99.90;;;;;;5052906;28;20508;-68
2021/01/11 00:15:15;;;;;;;26.55;14.25;;;9.50;99.90;;;;;;5053153;28;20037;-68
2021/01/11 00:17:45;;;;;;;23.02;14.70;;;9.40;99.90;;;;;;5052721;28;20037;-68
2021/01/11 00:20:12;;;;;;;25.75;15.48;;;9.40;99.90;;;;;;5052984;28;20489;-67
2021/01/11 00:22:43;;;;;;;26.80;14.40;;;9.30;99.90;;;;;;5054253;28;20413;-68
2021/01/11 00:25:13;;;;;;;21.02;13.75;;;9.20;99.90;;;;;;5053924;28;20401;-68
2021/01/11 00:27:41;;;;;;;28.48;15.45;;;9.20;99.90;;;;;;5054024;28;20025;-67
2021/01/11 00:30:10;;;;;;;28.50;15.00;;;9.20;99.90;;;;;;5054081;28;20393;-69
2021/01/11 00:32:41;;;;;;;25.95;14.77;;;9.10;99.90;;;;;;5053906;28;20032;-68
2021/01/11 00:35:09;;;;;;;27.77;16.30;;;9.10;99.90;;;;;;5053626;28;20420;-67
2021/01/11 00:37:36;;;;;;;24.55;15.13;;;9.10;99.90;;;;;;5053821;28;20417;-68
2021/01/11 00:40:05;;;;;;;32.22;15.75;;;9.00;99.90;;;;;;5053653;28;20513;-69
2021/01/11 00:42:35;;;;;;;27.80;15.07;;;9.00;99.90;;;;;;5053254;28;20037;-69
2021/01/11 00:45:06;;;;;;;30.08;16.67;;;8.90;99.90;;;;;;5053390;28;20029;-69
2021/01/11 00:47:41;;;;;;;30.98;17.30;;;8.80;99.90;;;;;;5055583;28;20039;-75
2021/01/11 00:50:09;;;;;;;28.83;15.65;;;8.80;99.90;;;;;;5055716;28;20037;-68
2021/01/11 00:52:37;;;;;;;28.77;15.63;;;8.70;99.90;;;;;;5053327;28;20040;-67
2021/01/11 00:55:08;;;;;;;30.85;17.90;;;8.70;99.90;;;;;;5063924;28;20029;-68
2021/01/11 00:57:34;;;;;;;25.52;15.57;;;8.70;99.90;;;;;;5071853;28;20029;-68
2021/01/11 01:00:03;;;;;;;30.23;17.02;;;8.60;99.90;;;;;;5073346;28;20036;-68
2021/01/11 01:02:30;;;;;;;29.20;17.17;;;8.60;99.90;;;;;;5064026;28;20028;-68
2021/01/11 01:04:57;;;;;;;31.05;18.02;;;8.60;99.90;;;;;;5053168;28;20481;-68
2021/01/11 01:07:24;;;;;;;34.70;19.52;;;8.50;99.90;;;;;;5054309;28;20487;-68
2021/01/11 01:09:51;;;;;;;32.97;18.00;;;8.50;99.90;;;;;;5053417;28;20025;-68
2021/01/11 01:12:19;;;;;;;30.75;18.45;;;8.50;99.90;;;;;;5064870;28;20032;-72
2021/01/11 01:14:46;;;;;;;32.55;18.00;;;8.50;99.90;;;;;;5073655;28;20457;-70
2021/01/11 01:17:13;;;;;;;34.15;17.45;;;8.40;99.90;;;;;;5063899;28;20464;-68
2021/01/11 01:19:39;;;;;;;27.17;16.35;;;8.40;99.90;;;;;;5053337;28;20036;-68
2021/01/11 01:22:06;;;;;;;37.17;18.20;;;8.40;99.90;;;;;;5063531;28;20040;-69
2021/01/11 01:24:33;;;;;;;32.83;16.83;;;8.40;99.90;;;;;;5071078;28;20472;-67
2021/01/11 01:27:00;;;;;;;35.63;18.60;;;8.30;99.90;;;;;;5070983;28;20044;-67
2021/01/11 01:29:27;;;;;;;27.25;14.70;;;8.30;99.90;;;;;;5072997;28;20384;-68
2021/01/11 01:31:54;;;;;;;34.67;15.90;;;8.30;99.90;;;;;;5071228;28;20487;-68
2021/01/11 01:34:21;;;;;;;31.27;16.42;;;8.30;99.90;;;;;;5072507;28;20029;-69
2021/01/11 01:36:48;;;;;;;28.27;15.75;;;8.40;99.90;;;;;;5058374;28;20036;-68
2021/01/11 01:39:15;;;;;;;28.17;13.32;;;8.40;99.90;;;;;;5051424;28;20037;-68
2021/01/11 01:41:45;;;;;;;28.23;13.68;;;8.40;99.90;;;;;;5064122;28;20040;-68
2021/01/11 01:44:12;;;;;;;29.75;13.70;;;8.40;99.90;;;;;;5072567;28;20031;-67
2021/01/11 01:46:38;;;;;;;29.00;12.60;;;8.40;99.90;;;;;;5060276;28;20044;-67
2021/01/11 01:49:06;;;;;;;27.67;13.80;;;8.40;99.90;;;;;;5071571;28;20029;-67
2021/01/11 01:51:33;;;;;;;28.83;13.23;;;8.40;99.90;;;;;;5070002;28;20041;-67
2021/01/11 01:54:01;;;;;;;28.23;13.32;;;8.40;99.90;;;;;;5072290;28;20025;-67
2021/01/11 01:56:28;;;;;;;25.38;13.05;;;8.40;99.90;;;;;;5063031;28;20021;-66
2021/01/11 01:58:56;;;;;;;25.48;14.68;;;8.40;99.90;;;;;;5053575;28;20021;-66
2021/01/11 02:01:23;;;;;;;27.48;14.43;;;8.40;99.90;;;;;;5059887;28;20055;-67
2021/01/11 02:03:50;;;;;;;31.58;16.08;;;8.40;99.90;;;;;;5071628;28;20032;-69
2021/01/11 02:06:17;;;;;;;25.02;12.55;;;8.40;99.90;;;;;;5065785;28;20466;-67
2021/01/11 02:08:52;;;;;;;26.08;13.13;;;8.40;99.90;;;;;;5051716;28;20032;-66
2021/01/11 02:11:50;;;;;;;27.88;13.75;;;8.40;99.90;;;;;;5052317;28;20033;-67
2021/01/11 02:14:29;;;;;;;25.17;12.88;;;8.40;99.90;;;;;;5051572;28;20033;-67
2021/01/11 02:17:09;;;;;;;20.48;11.45;;;8.40;99.90;;;;;;5032097;28;20053;-68
2021/01/11 02:20:18;;;;;;;24.67;14.35;;;8.40;99.90;;;;;;5042844;28;20025;-68
2021/01/11 02:23:16;;;;;;;23.88;13.23;;;8.40;99.90;;;;;;5057206;28;20039;-72
2021/01/11 02:25:52;;;;;;;24.35;13.88;;;8.40;99.90;;;;;;5052412;28;20029;-68
2021/01/11 02:28:53;;;;;;;26.17;13.88;;;8.40;99.90;;;;;;5051855;28;20021;-69
2021/01/11 02:31:24;;;;;;;27.08;14.10;;;8.40;99.90;;;;;;5051625;28;20025;-68
2021/01/11 02:33:58;;;;;;;27.85;15.30;;;8.40;99.90;;;;;;5051834;28;20383;-68
2021/01/11 02:36:26;;;;;;;22.95;14.27;;;8.40;99.90;;;;;;5051853;28;20036;-70
2021/01/11 02:38:54;;;;;;;26.75;14.60;;;8.40;99.90;;;;;;5051589;28;20049;-66
2021/01/11 02:41:21;;;;;;;24.92;14.10;;;8.40;99.90;;;;;;5051617;28;20081;-68
2021/01/11 02:43:48;;;;;;;30.20;16.33;;;8.40;99.90;;;;;;5051321;28;20037;-68
2021/01/11 02:46:15;;;;;;;24.15;14.07;;;8.40;99.90;;;;;;5051664;28;20029;-68
2021/01/11 02:48:55;;;;;;;27.35;15.88;;;8.40;99.90;;;;;;5050706;28;20043;-68
2021/01/11 02:51:27;;;;;;;29.27;15.27;;;8.40;99.90;;;;;;5051708;28;20036;-68
2021/01/11 02:54:11;;;;;;;;;;;8.40;99.90;;;;;;5052086;28;20021;-67
2021/01/11 02:57:08;;;;;;;32.13;15.60;;;8.40;99.90;;;;;;5051757;28;20741;-69
2021/01/11 03:00:04;;;;;;;24.05;14.88;;;8.40;99.90;;;;;;5050249;28;20040;-68
2021/01/11 03:02:36;;;;;;;24.75;16.70;;;8.40;99.90;;;;;;5051257;28;20041;-69
2021/01/11 03:05:03;;;;;;;31.58;15.82;;;8.40;99.90;;;;;;5051478;28;20025;-68
2021/01/11 03:07:30;;;;;;;26.63;15.68;;;8.40;99.90;;;;;;5052826;28;20381;-68
2021/01/11 03:09:57;;;;;;;27.40;15.88;;;8.40;99.90;;;;;;5053619;28;20017;-68
2021/01/11 03:12:24;;;;;;;30.77;17.00;;;8.30;99.90;;;;;;5050585;28;20044;-68
2021/01/11 03:14:51;;;;;;;26.27;17.25;;;8.30;99.90;;;;;;5065649;28;20045;-67
2021/01/11 03:17:18;;;;;;;28.50;17.50;;;8.30;99.90;;;;;;5051263;28;20036;-68
2021/01/11 03:19:45;;;;;;;31.38;20.08;;;8.30;99.90;;;;;;5069789;28;20033;-68
2021/01/11 03:22:12;;;;;;;30.13;19.25;;;8.30;99.90;;;;;;5048912;28;20041;-67
2021/01/11 03:24:40;;;;;;;34.97;20.98;;;8.30;99.90;;;;;;5071419;28;20373;-68
2021/01/11 03:27:07;;;;;;;33.85;20.23;;;8.30;99.90;;;;;;5062706;28;20041;-67
2021/01/11 03:29:34;;;;;;;35.97;21.13;;;8.30;99.90;;;;;;5051985;28;20112;-68
2021/01/11 03:32:01;;;;;;;37.13;20.73;;;8.30;99.90;;;;;;5049565;28;20151;-68
2021/01/11 03:34:28;;;;;;;46.67;24.45;;;8.30;99.90;;;;;;5055025;28;20377;-68
2021/01/11 03:36:55;;;;;;;34.08;21.20;;;8.20;99.90;;;;;;5071245;28;20353;-68
2021/01/11 03:39:22;;;;;;;29.73;19.20;;;8.20;99.90;;;;;;5063186;28;21250;-69
2021/01/11 03:41:48;;;;;;;27.98;17.73;;;8.20;99.90;;;;;;5071043;28;20384;-68
2021/01/11 03:44:15;;;;;;;27.25;17.55;;;8.30;99.90;;;;;;5066421;28;20025;-68
2021/01/11 03:46:42;;;;;;;27.95;17.77;;;8.20;99.90;;;;;;5056157;28;20045;-67
2021/01/11 03:49:09;;;;;;;27.17;16.42;;;8.20;99.90;;;;;;5057211;28;20052;-68
2021/01/11 03:51:36;;;;;;;24.75;17.75;;;8.20;99.90;;;;;;5058370;28;20028;-67
2021/01/11 03:54:03;;;;;;;23.50;16.52;;;8.20;99.90;;;;;;5071268;28;20043;-68
2021/01/11 03:56:30;;;;;;;24.85;15.73;;;8.20;99.90;;;;;;5071367;28;20413;-70
2021/01/11 03:58:57;;;;;;;26.63;17.23;;;8.30;99.90;;;;;;5058917;28;20025;-68
2021/01/11 04:01:27;;;;;;;24.02;15.40;;;8.30;99.90;;;;;;5054701;28;20036;-67
2021/01/11 04:03:54;;;;;;;26.23;15.73;;;8.40;99.90;;;;;;5054165;28;20021;-67
2021/01/11 04:06:22;;;;;;;24.20;15.63;;;8.30;99.90;;;;;;5054500;28;20381;-68
2021/01/11 04:08:49;;;;;;;27.50;15.65;;;8.40;99.90;;;;;;5054684;28;20021;-67
2021/01/11 04:11:24;;;;;;;22.25;15.50;;;8.40;99.90;;;;;;5070963;28;20035;-68
2021/01/11 04:13:51;;;;;;;21.75;15.63;;;8.40;99.90;;;;;;5062849;28;20381;-68
2021/01/11 04:16:18;;;;;;;28.83;15.30;;;8.30;99.90;;;;;;5054670;28;20021;-68
2021/01/11 04:18:45;;;;;;;25.25;15.85;;;8.30;99.90;;;;;;5054309;28;20454;-71
2021/01/11 04:21:13;;;;;;;32.80;16.10;;;8.30;99.90;;;;;;5054629;28;20040;-69
2021/01/11 04:23:40;;;;;;;23.40;15.27;;;8.30;99.90;;;;;;5054232;28;20377;-68
2021/01/11 04:26:11;;;;;;;25.55;15.57;;;8.30;99.90;;;;;;5054193;28;20036;-69
2021/01/11 04:28:38;;;;;;;23.25;15.27;;;8.30;99.90;;;;;;5054001;28;20036;-67
2021/01/11 04:31:06;;;;;;;24.15;14.88;;;8.30;99.90;;;;;;5053910;28;20025;-67
2021/01/11 04:33:32;;;;;;;27.67;15.65;;;8.30;99.90;;;;;;5054242;28;20099;-67
2021/01/11 04:36:00;;;;;;;24.45;15.05;;;8.40;99.90;;;;;;5053799;28;20030;-68
2021/01/11 04:38:26;;;;;;;23.73;14.57;;;8.40;99.90;;;;;;5053489;28;20073;-68
2021/01/11 04:41:03;;;;;;;21.95;14.40;;;8.40;99.90;;;;;;5054071;28;20041;-67
2021/01/11 04:43:39;;;;;;;24.20;15.20;;;8.40;99.90;;;;;;5052295;28;20037;-68
2021/01/11 04:46:07;;;;;;;22.58;14.13;;;8.40;99.90;;;;;;5053858;28;20385;-67
2021/01/11 04:48:34;;;;;;;20.42;13.52;;;8.40;99.90;;;;;;5054196;28;20044;-67
2021/01/11 04:51:02;;;;;;;20.65;14.40;;;8.40;99.90;;;;;;5054507;28;20021;-69
2021/01/11 04:53:30;;;;;;;22.30;13.05;;;8.40;99.90;;;;;;5064435;28;20388;-68
2021/01/11 04:55:57;;;;;;;20.35;13.50;;;8.40;99.90;;;;;;5069886;28;20032;-68
2021/01/11 04:58:29;;;;;;;22.17;13.70;;;8.40;99.90;;;;;;5061725;28;20014;-68
2021/01/11 05:01:00;;;;;;;19.38;13.38;;;8.40;99.90;;;;;;5053555;28;20033;-68
2021/01/11 05:03:28;;;;;;;17.85;11.75;;;8.50;99.90;;;;;;5058968;28;20020;-67
2021/01/11 05:05:55;;;;;;;17.60;12.77;;;8.40;99.90;;;;;;5073398;28;20408;-67
2021/01/11 05:08:21;;;;;;;19.15;12.25;;;8.40;99.90;;;;;;5071655;28;20028;-68
2021/01/11 05:10:48;;;;;;;19.95;12.05;;;8.40;99.90;;;;;;5052565;28;20021;-67
2021/01/11 05:13:15;;;;;;;18.42;11.65;;;8.40;99.90;;;;;;5053158;28;20029;-67
2021/01/11 05:15:42;;;;;;;18.27;11.95;;;8.40;99.90;;;;;;5053242;28;20028;-68
2021/01/11 05:18:16;;;;;;;21.33;12.20;;;8.50;99.90;;;;;;5053077;28;20041;-67
2021/01/11 05:20:44;;;;;;;17.65;11.23;;;8.40;99.90;;;;;;5060573;28;20021;-67
2021/01/11 05:23:12;;;;;;;16.60;11.18;;;8.40;99.90;;;;;;5072039;28;20044;-67
2021/01/11 05:25:41;;;;;;;17.55;10.80;;;8.50;99.90;;;;;;5063709;28;20452;-68
2021/01/11 05:28:17;;;;;;;20.40;11.95;;;8.50;99.90;;;;;;5071117;28;20025;-67
2021/01/11 05:30:49;;;;;;;20.73;11.20;;;8.50;99.90;;;;;;5068222;28;20025;-68
2021/01/11 05:33:16;;;;;;;;;;;8.50;99.90;;;;;;5060591;28;20033;-69
2021/01/11 05:35:44;;;;;;;17.60;10.70;;;8.50;99.90;;;;;;5052842;28;19905;-68
2021/01/11 05:38:17;;;;;;;18.55;10.30;;;8.50;99.90;;;;;;5056243;28;20092;-68
2021/01/11 05:40:45;;;;;;;18.77;10.05;;;8.50;99.90;;;;;;5052571;28;20040;-68
2021/01/11 05:43:22;;;;;;;17.02;9.68;;;8.50;99.90;;;;;;5052648;28;20020;-68
2021/01/11 05:45:49;;;;;;;16.85;9.27;;;8.50;99.90;;;;;;5060166;28;20033;-68
2021/01/11 05:48:16;;;;;;;19.20;10.45;;;8.50;99.90;;;;;;5052810;28;20029;-68
2021/01/11 05:50:46;;;;;;;17.05;9.52;;;8.40;99.90;;;;;;5059299;28;20043;-68
2021/01/11 05:53:21;;;;;;;15.63;8.43;;;8.40;99.90;;;;;;5072633;28;20025;-68
2021/01/11 05:55:51;;;;;;;16.15;10.02;;;8.40;99.90;;;;;;5060183;28;20508;-69
2021/01/11 05:58:27;;;;;;;14.63;10.10;;;8.40;99.90;;;;;;5065919;28;20761;-68
2021/01/11 06:00:54;;;;;;;17.33;8.90;;;8.30;99.90;;;;;;5070269;28;20039;-68
2021/01/11 06:03:25;;;;;;;16.75;9.15;;;8.30;99.90;;;;;;5072602;28;20373;-69
2021/01/11 06:05:53;;;;;;;14.23;7.85;;;8.30;99.90;;;;;;5058220;28;20452;-66
2021/01/11 06:08:20;;;;;;;17.95;8.85;;;8.30;99.90;;;;;;5051120;28;20036;-69
2021/01/11 06:10:50;;;;;;;16.20;8.95;;;8.30;99.90;;;;;;5053624;28;20048;-68
2021/01/11 06:13:18;;;;;;;14.20;8.02;;;8.30;99.90;;;;;;5059421;28;20041;-69
2021/01/11 06:15:45;;;;;;;15.63;8.20;;;8.20;99.90;;;;;;5069745;28;20424;-69
2021/01/11 06:18:13;;;;;;;15.73;7.65;;;8.30;99.90;;;;;;5069557;28;20032;-68
2021/01/11 06:20:46;;;;;;;15.52;8.30;;;8.20;99.90;;;;;;5063239;28;20032;-68
2021/01/11 06:23:26;;;;;;;15.57;8.07;;;8.20;99.90;;;;;;5071001;28;20036;-68
2021/01/11 06:25:53;;;;;;;13.63;8.57;;;8.20;99.90;;;;;;5071103;28;20033;-68
2021/01/11 06:28:35;;;;;;;12.75;8.13;;;8.20;99.90;;;;;;5070099;28;20037;-69
2021/01/11 06:31:13;;;;;;;14.77;7.75;;;8.20;99.90;;;;;;5071759;28;20021;-68
2021/01/11 06:33:40;;;;;;;15.77;8.13;;;8.20;99.90;;;;;;5065289;28;20036;-68
2021/01/11 06:36:29;;;;;;;16.98;8.25;;;8.20;99.90;;;;;;5072440;28;20039;-68
2021/01/11 06:38:56;;;;;;;14.60;8.40;;;8.20;99.90;;;;;;5039155;28;20032;-68
2021/01/11 06:41:29;;;;;;;14.68;8.60;;;8.20;99.90;;;;;;5070978;28;20052;-69
2021/01/11 06:44:05;;;;;;;13.57;8.10;;;8.20;99.90;;;;;;5050385;28;20404;-68
2021/01/11 06:46:32;;;;;;;15.23;8.63;;;8.20;99.90;;;;;;5051409;28;20473;-68
2021/01/11 06:49:04;;;;;;;13.93;8.93;;;8.20;99.90;;;;;;5062170;28;20051;-69
2021/01/11 06:51:42;;;;;;;15.48;9.55;;;8.20;99.90;;;;;;5064903;28;20028;-73
2021/01/11 06:54:18;;;;;;;13.50;9.30;;;8.10;99.90;;;;;;5068359;28;20024;-68
2021/01/11 06:56:46;;;;;;;13.75;9.27;;;8.20;99.90;;;;;;5053024;28;20374;-67
2021/01/11 06:59:19;;;;;;;13.93;9.40;;;8.20;99.90;;;;;;5060835;28;20028;-68
2021/01/11 07:01:47;;;;;;;16.00;9.32;;;8.20;99.90;;;;;;5071279;28;20032;-68
2021/01/11 07:04:38;;;;;;;17.58;9.63;;;8.10;99.90;;;;;;5054163;28;20033;-68
2021/01/11 07:07:07;;;;;;;18.50;10.55;;;8.20;99.90;;;;;;5052564;28;20033;-68
2021/01/11 07:09:53;;;;;;;13.25;8.88;;;8.20;99.90;;;;;;5070845;28;20055;-67
2021/01/11 07:12:21;;;;;;;15.27;8.93;;;8.20;99.90;;;;;;5052950;28;20033;-67
2021/01/11 07:15:04;;;;;;;15.30;8.82;;;8.10;99.90;;;;;;5052129;28;20041;-69
2021/01/11 07:17:42;;;;;;;16.33;8.52;;;8.10;99.90;;;;;;5052273;28;20025;-66
2021/01/11 07:20:12;;;;;;;11.13;7.97;;;8.20;99.90;;;;;;5062620;28;20028;-67
2021/01/11 07:22:44;;;;;;;13.00;8.15;;;8.30;99.90;;;;;;5054697;28;20049;-66
2021/01/11 07:25:13;;;;;;;;;;;8.30;99.90;;;;;;5053848;28;20037;-65
2021/01/11 07:27:40;;;;;;;11.20;6.97;;;8.40;99.90;;;;;;5052868;28;19909;-65
2021/01/11 07:30:08;;;;;;;11.93;6.47;;;8.40;99.90;;;;;;5052237;28;20053;-66
2021/01/11 07:32:35;;;;;;;10.35;6.97;;;8.40;99.90;;;;;;5067058;28;20039;-67
2021/01/11 07:35:03;;;;;;;12.35;6.53;;;8.40;99.90;;;;;;5055266;28;20040;-66
2021/01/11 07:37:29;;;;;;;10.13;6.53;;;8.50;99.90;;;;;;5054894;28;20483;-66
2021/01/11 07:40:06;;;;;;;13.82;7.30;;;8.50;99.90;;;;;;5054945;28;20048;-65
2021/01/11 07:42:33;;;;;;;8.80;5.85;;;8.60;99.90;;;;;;5055079;28;20048;-66
2021/01/11 07:45:12;;;;;;;10.93;5.82;;;8.60;99.90;;;;;;5054828;28;20083;-66
2021/01/11 07:47:41;;;;;;;11.00;6.05;;;8.60;99.90;;;;;;5056839;28;20037;-66
2021/01/11 07:50:11;;;;;;;8.13;5.40;;;8.70;99.90;;;;;;5073160;28;20029;-65
2021/01/11 07:52:38;;;;;;;9.75;5.72;;;8.70;99.90;;;;;;5055805;28;20366;-67
2021/01/11 07:55:11;;;;;;;9.10;5.68;;;8.80;99.90;;;;;;5055057;28;20033;-66
2021/01/11 07:57:38;;;;;;;10.88;5.75;;;8.80;99.90;;;;;;5054821;28;20032;-66
2021/01/11 08:00:11;;;;;;;10.80;6.13;;;8.80;99.90;;;;;;5054806;28;20021;-68
2021/01/11 08:02:39;;;;;;;9.85;5.43;;;8.80;99.90;;;;;;5054586;28;20393;-67
2021/01/11 08:05:23;;;;;;;7.43;4.78;;;8.80;99.90;;;;;;5052521;28;20033;-66
2021/01/11 08:08:11;;;;;;;9.30;5.70;;;8.80;99.90;;;;;;5052797;28;20044;-66
2021/01/11 08:10:37;;;;;;;9.15;5.78;;;8.70;99.90;;;;;;5054189;28;20041;-66
2021/01/11 08:13:08;;;;;;;10.18;6.03;;;8.70;99.90;;;;;;5054614;28;20025;-66
2021/01/11 08:15:34;;;;;;;11.95;5.85;;;8.60;99.90;;;;;;5053848;28;20036;-67
2021/01/11 08:18:05;;;;;;;12.95;7.13;;;8.60;99.90;;;;;;5053126;28;20032;-67
2021/01/11 08:20:32;;;;;;;8.02;5.88;;;8.60;99.90;;;;;;5054493;28;20032;-67
2021/01/11 08:23:09;;;;;;;9.80;6.28;;;8.60;99.90;;;;;;5055000;28;20032;-72
2021/01/11 08:25:37;;;;;;;9.88;6.10;;;8.60;99.90;;;;;;5058001;28;20025;-67
2021/01/11 08:28:05;;;;;;;11.27;7.15;;;8.60;99.90;;;;;;5054695;28;20041;-67
2021/01/11 08:30:33;;;;;;;11.43;6.97;;;8.50;99.90;;;;;;5053982;28;20025;-68
2021/01/11 08:33:06;;;;;;;11.05;6.00;;;8.60;99.90;;;;;;5054025;28;20025;-68
2021/01/11 08:35:33;;;;;;;12.02;7.10;;;8.50;99.90;;;;;;5053072;28;20032;-71
2021/01/11 08:38:00;;;;;;;12.40;7.20;;;8.40;99.90;;;;;;5065164;28;20051;-69
2021/01/11 08:40:32;;;;;;;10.20;6.20;;;8.40;99.90;;;;;;5058778;28;20048;-69
2021/01/11 08:43:25;;;;;;;11.27;7.55;;;8.40;99.90;;;;;;5053075;28;20045;-67
2021/01/11 08:45:53;;;;;;;7.82;5.95;;;8.40;99.90;;;;;;5034225;28;20037;-68
2021/01/11 08:48:26;;;;;;;11.02;7.38;;;8.40;99.90;;;;;;5061682;28;20534;-70
2021/01/11 08:50:53;;;;;;;9.55;7.15;;;8.40;99.90;;;;;;5073734;28;20369;-68
2021/01/11 08:53:27;;;;;;;10.43;7.20;;;8.40;99.90;;;;;;5060212;28;20381;-68
2021/01/11 08:56:01;;;;;;;10.75;7.55;;;8.40;99.90;;;;;;5058127;28;20047;-68
2021/01/11 08:58:36;;;;;;;10.77;7.05;;;8.40;99.90;;;;;;5066763;28;20048;-68
2021/01/11 09:01:13;;;;;;;12.65;7.57;;;8.30;99.90;;;;;;5073554;28;20030;-67
2021/01/11 09:03:41;;;;;;;12.07;6.97;;;8.40;99.90;;;;;;5058800;28;20037;-68
2021/01/11 09:06:09;;;;;;;9.93;7.72;;;8.30;99.90;;;;;;5054272;28;20032;-69
2021/01/11 09:08:36;;;;;;;11.50;7.57;;;8.30;99.90;;;;;;5054055;28;20469;-68
2021/01/11 09:11:12;;;;;;;10.23;7.25;;;8.40;99.90;;;;;;5053243;28;20365;-68
2021/01/11 09:13:39;;;;;;;10.05;8.00;;;8.30;99.90;;;;;;5064532;28;20388;-68
2021/01/11 09:16:16;;;;;;;10.88;8.07;;;8.30;99.90;;;;;;5071513;28;20032;-69
2021/01/11 09:18:43;;;;;;;10.55;6.80;;;8.20;99.90;;;;;;5070207;28;20495;-68
2021/01/11 09:21:09;;;;;;;11.50;7.82;;;8.20;99.90;;;;;;5071825;28;20048;-68
2021/01/11 09:23:36;;;;;;;10.35;7.65;;;8.20;99.90;;;;;;5068520;28;20040;-68
2021/01/11 09:26:03;;;;;;;11.48;8.05;;;8.20;99.90;;;;;;5054077;28;20033;-69
2021/01/11 09:28:30;;;;;;;13.55;7.55;;;8.20;99.90;;;;;;5054727;28;20037;-69
2021/01/11 09:30:57;;;;;;;12.73;8.43;;;8.20;99.90;;;;;;5048401;28;20028;-68
2021/01/11 09:33:24;;;;;;;15.05;8.15;;;8.20;99.90;;;;;;5060116;28;20075;-69
2021/01/11 09:35:51;;;;;;;17.45;8.23;;;8.20;99.90;;;;;;5072416;28;20028;-67
2021/01/11 09:38:18;;;;;;;11.70;7.88;;;8.30;99.90;;;;;;5053625;28;20033;-68
2021/01/11 09:40:45;;;;;;;11.02;8.00;;;8.20;99.90;;;;;;5051407;28;20132;-68
2021/01/11 09:43:12;;;;;;;12.48;7.78;;;8.20;99.90;;;;;;5053534;28;20041;-68
2021/01/11 09:45:39;;;;;;;11.25;7.30;;;8.20;99.90;;;;;;5052721;28;20032;-68
2021/01/11 09:48:06;;;;;;;13.45;7.38;;;8.20;99.90;;;;;;5053770;28;20044;-69
2021/01/11 09:50:33;;;;;;;10.50;6.93;;;8.30;99.90;;;;;;5052657;28;20046;-67
2021/01/11 09:53:05;;;;;;;10.70;7.32;;;8.30;99.90;;;;;;5065187;28;20039;-68
2021/01/11 09:55:31;;;;;;;12.73;8.45;;;8.20;99.90;;;;;;5070495;28;20031;-68
2021/01/11 09:58:01;;;;;;;12.05;7.75;;;8.20;99.90;;;;;;5060154;28;20036;-72
2021/01/11 10:00:29;;;;;;;11.00;7.72;;;8.30;99.90;;;;;;5070048;28;20033;-68
2021/01/11 10:02:55;;;;;;;11.00;7.32;;;8.30;99.90;;;;;;5051768;28;20055;-67
2021/01/11 10:05:26;;;;;;;11.73;8.30;;;8.30;99.90;;;;;;5052456;28;20036;-67
2021/01/11 10:07:53;;;;;;;11.45;7.40;;;8.40;99.90;;;;;;5032475;28;20374;-68
2021/01/11 10:10:19;;;;;;;10.57;7.22;;;8.40;99.90;;;;;;5069986;28;20044;-67
2021/01/11 10:12:46;;;;;;;10.38;7.15;;;8.40;99.90;;;;;;5066456;28;20037;-67
2021/01/11 10:15:13;;;;;;;9.88;7.22;;;8.40;99.90;;;;;;5052331;28;20044;-68
2021/01/11 10:17:40;;;;;;;13.18;7.30;;;8.40;99.90;;;;;;5055687;28;20485;-69
2021/01/11 10:20:09;;;;;;;12.75;7.78;;;8.30;99.90;;;;;;5068994;28;20036;-69
2021/01/11 10:22:36;;;;;;;11.20;7.95;;;8.20;99.90;;;;;;5069012;28;20044;-68
2021/01/11 10:25:04;;;;;;;10.40;7.07;;;8.20;99.90;;;;;;5052237;28;20021;-68
2021/01/11 10:27:30;;;;;;;9.35;6.95;;;8.10;99.90;;;;;;5053666;28;20381;-72
2021/01/11 10:29:58;;;;;;;9.25;6.93;;;8.20;99.90;;;;;;5066523;28;20033;-69
2021/01/11 10:32:25;;;;;;;12.13;6.82;;;8.10;99.90;;;;;;5052259;28;20032;-69
2021/01/11 10:34:52;;;;;;;9.45;7.28;;;8.10;99.90;;;;;;5071858;28;20461;-69
2021/01/11 10:37:19;;;;;;;10.32;7.07;;;8.10;99.90;;;;;;5072067;28;20385;-69
2021/01/11 10:39:46;;;;;;;11.20;7.10;;;8.00;99.90;;;;;;5052600;28;20045;-69
2021/01/11 10:42:13;;;;;;;11.02;7.32;;;8.10;99.90;;;;;;5051965;28;20033;-69
2021/01/11 10:44:40;;;;;;;11.70;7.25;;;8.10;99.90;;;;;;5069617;28;20048;-70
2021/01/11 10:47:06;;;;;;;10.32;7.45;;;8.10;99.90;;;;;;5071461;28;20032;-68
2021/01/11 10:49:33;;;;;;;11.80;8.00;;;8.10;99.90;;;;;;5069791;28;20047;-67
2021/01/11 10:52:00;;;;;;;15.30;7.45;;;8.00;99.90;;;;;;5071727;28;20369;-68
2021/01/11 10:54:28;;;;;;;11.32;7.53;;;8.10;99.90;;;;;;5070715;28;20051;-68
2021/01/11 10:56:55;;;;;;;11.27;7.68;;;8.00;99.90;;;;;;5071616;28;20043;-68
2021/01/11 10:59:22;;;;;;;11.40;7.22;;;8.10;99.90;;;;;;5069866;28;20025;-69
2021/01/11 11:01:50;;;;;;;9.73;7.13;;;8.10;99.90;;;;;;5071319;28;20036;-69
2021/01/11 11:04:18;;;;;;;9.68;6.85;;;8.00;99.90;;;;;;5068692;28;20040;-67
2021/01/11 11:06:45;;;;;;;16.52;7.70;;;8.20;99.90;;;;;;5071188;28;20040;-67
2021/01/11 11:09:12;;;;;;;10.73;7.47;;;8.30;99.90;;;;;;5069779;28;20040;-68
2021/01/11 11:11:39;;;;;;;11.70;7.22;;;8.30;99.90;;;;;;5071585;28;20384;-67
2021/01/11 11:14:06;;;;;;;11.07;7.25;;;8.40;99.90;;;;;;5071090;28;20025;-69
2021/01/11 11:16:33;;;;;;;10.98;7.47;;;8.40;99.90;;;;;;5071382;28;20032;-68
2021/01/11 11:19:00;;;;;;;9.65;6.47;;;8.50;99.90;;;;;;5069483;28;20024;-68
2021/01/11 11:21:26;;;;;;;10.27;6.50;;;8.50;99.90;;;;;;5071472;28;20035;-68
2021/01/11 11:23:54;;;;;;;8.38;5.82;;;8.50;99.90;;;;;;5060257;28;20041;-67
2021/01/11 11:26:21;;;;;;;6.95;5.07;;;8.60;99.90;;;;;;5051559;28;20372;-68
2021/01/11 11:28:48;;;;;;;8.35;5.50;;;8.60;99.90;;;;;;5060040;28;20032;-67
2021/01/11 11:31:15;;;;;;;8.43;5.93;;;8.60;99.90;;;;;;5055515;28;20377;-68
2021/01/11 11:33:42;;;;;;;10.38;6.80;;;8.60;99.90;;;;;;5052601;28;20029;-68
2021/01/11 11:36:09;;;;;;;8.18;5.32;;;8.50;99.90;;;;;;5049752;28;20052;-67
2021/01/11 11:38:36;;;;;;;10.80;6.38;;;8.50;99.90;;;;;;5050859;28;20381;-67
2021/01/11 11:41:03;;;;;;;11.07;7.05;;;8.50;99.90;;;;;;5052383;28;20029;-67
2021/01/11 11:43:30;;;;;;;10.15;6.45;;;8.40;99.90;;;;;;5067217;28;20059;-68
2021/01/11 11:45:57;;;;;;;9.73;6.35;;;8.40;99.90;;;;;;5071157;28;20033;-67
2021/01/11 11:48:23;;;;;;;11.15;7.75;;;8.30;99.90;;;;;;5055379;28;20029;-67
2021/01/11 11:50:50;;;;;;;8.02;6.38;;;8.20;99.90;;;;;;5052046;28;20048;-68
2021/01/11 11:53:18;;;;;;;10.18;6.78;;;8.20;99.90;;;;;;5051040;28;20377;-68
2021/01/11 11:55:45;;;;;;;8.80;6.82;;;8.20;99.90;;;;;;5069115;28;20543;-67
2021/01/11 11:58:12;;;;;;;9.43;7.05;;;8.20;99.90;;;;;;5071109;28;20464;-68
2021/01/11 12:00:39;;;;;;;9.73;7.32;;;8.20;99.90;;;;;;5068616;28;20029;-68
2021/01/11 12:03:06;;;;;;;10.02;7.07;;;8.20;99.90;;;;;;5050962;28;20044;-68
2021/01/11 12:05:33;;;;;;;8.68;5.88;;;8.30;99.90;;;;;;5066202;28;20037;-68
2021/01/11 12:08:00;;;;;;;8.93;6.40;;;8.30;99.90;;;;;;5070856;28;20385;-68
2021/01/11 12:10:26;;;;;;;9.43;6.28;;;8.30;99.90;;;;;;5070064;28;20059;-68
2021/01/11 12:12:53;;;;;;;9.52;6.15;;;8.20;99.90;;;;;;5054769;28;20036;-67
2021/01/11 12:15:21;;;;;;;8.05;6.40;;;8.30;99.90;;;;;;5061907;28;20037;-68
2021/01/11 12:17:48;;;;;;;8.98;6.10;;;8.20;99.90;;;;;;5072700;28;20051;-67
2021/01/11 12:20:15;;;;;;;7.82;5.40;;;8.30;99.90;;;;;;5063809;28;20378;-67
2021/01/11 12:22:42;;;;;;;7.88;5.82;;;8.40;99.90;;;;;;5055229;28;20052;-67
2021/01/11 12:25:09;;;;;;;9.95;5.97;;;8.30;99.90;;;;;;5062209;28;20036;-68
2021/01/11 12:27:36;;;;;;;7.53;5.82;;;8.20;99.90;;;;;;5064052;28;20032;-67
2021/01/11 12:30:05;;;;;;;8.82;6.03;;;8.30;99.90;;;;;;5061262;28;20586;-68
2021/01/11 12:32:32;;;;;;;10.15;6.07;;;8.10;99.90;;;;;;5073790;28;20048;-67
2021/01/11 12:34:58;;;;;;;9.48;6.60;;;8.10;99.90;;;;;;5073566;28;20043;-68
2021/01/11 12:37:25;;;;;;;8.45;5.85;;;8.00;99.90;;;;;;5068951;28;20040;-68
2021/01/11 12:39:52;;;;;;;9.52;6.07;;;7.90;99.90;;;;;;5052596;28;20041;-67
2021/01/11 12:42:19;;;;;;;8.68;5.60;;;7.80;99.90;;;;;;5054160;28;20040;-68
2021/01/11 12:44:46;;;;;;;9.45;6.47;;;7.80;99.90;;;;;;5054507;28;20041;-67
2021/01/11 12:47:13;;;;;;;9.50;6.70;;;7.70;99.90;;;;;;5073967;28;20021;-68
2021/01/11 12:49:40;;;;;;;9.82;6.57;;;7.80;99.90;;;;;;5058349;28;20036;-67
2021/01/11 12:52:14;;;;;;;7.75;5.85;;;7.90;99.90;;;;;;5074068;28;20024;-67
2021/01/11 12:54:41;;;;;;;9.70;6.15;;;7.90;99.90;;;;;;5056687;28;20033;-67
2021/01/11 12:57:08;;;;;;;9.57;6.15;;;7.90;99.90;;;;;;5053465;28;20025;-68